Main page
METAR-TAF:

METAR-TAF

Airports :

Elsenborn-Butgenbach Air Base

Bütgenbach, Belgium

latitude: 50-28N, longitude: 006-11E, elevation: 564 m

Current weather observation

The report was made 19 hours and 53 minutes ago, at 05:25 UTC
Calm wind
Temperature 12°C
Humidity 94%
Pressure 1022 hPa
Visibility 10 km or more

METAR: EBLB 240525Z AUTO 00000KT 9999 NCD 12/11 Q1022 BLU

Time: 03:18 (01:18 UTC)


TAF: missing

Weather observations and forecasts of more than 4000 airports (METAR and TAF reports).

The available stations are represented by yellow and red dots on the map.

Hover mouse over dot to see the name of the station.

Then click to see weather observations and forecasts.

To change the map : click on the green buttons with a black cross to zoom in, on the green button with a dash to zoom out, or on the green arrows for adjacent maps.


METAR-TAF: